createdAt,value
2022-12-20T00:01:26.017Z,1.63
2022-12-20T00:03:55.074Z,1.50
2022-12-20T00:06:22.857Z,1.65
2022-12-20T00:08:55.384Z,1.67
2022-12-20T00:11:22.962Z,1.63
2022-12-20T00:13:49.645Z,2.60
2022-12-20T00:16:22.135Z,1.75
2022-12-20T00:18:53.285Z,1.75
2022-12-20T00:21:20.416Z,1.50
2022-12-20T00:23:47.035Z,1.40
2022-12-20T00:26:16.966Z,2.13
2022-12-20T00:28:45.347Z,1.30
2022-12-20T00:31:13.855Z,1.60
2022-12-20T00:33:40.849Z,1.65
2022-12-20T00:36:09.219Z,1.83
2022-12-20T00:38:36.473Z,1.70
2022-12-20T00:41:18.174Z,1.52
2022-12-20T00:43:44.974Z,2.05
2022-12-20T00:46:12.794Z,1.58
2022-12-20T00:48:39.457Z,1.80
2022-12-20T00:51:08.615Z,1.58
2022-12-20T00:53:36.705Z,1.70
2022-12-20T00:56:04.631Z,1.55
2022-12-20T00:58:33.496Z,1.50
2022-12-20T01:01:00.411Z,1.55
2022-12-20T01:03:28.035Z,1.33
2022-12-20T01:06:00.474Z,2.03
2022-12-20T01:08:30.082Z,1.48
2022-12-20T01:11:01.464Z,1.48
2022-12-20T01:13:28.697Z,1.48
2022-12-20T01:15:55.404Z,1.30
2022-12-20T01:18:22.987Z,1.65
2022-12-20T01:20:49.623Z,1.60
2022-12-20T01:23:16.308Z,1.50
2022-12-20T01:25:42.993Z,1.65
2022-12-20T01:28:10.089Z,1.67
2022-12-20T01:30:40.592Z,1.23
2022-12-20T01:33:07.652Z,1.53
2022-12-20T01:35:34.313Z,1.65
2022-12-20T01:38:00.941Z,1.70
2022-12-20T01:40:27.655Z,1.98
2022-12-20T01:42:54.350Z,1.55
2022-12-20T01:45:27.917Z,1.58
2022-12-20T01:47:55.530Z,1.73
2022-12-20T01:50:23.422Z,1.70
2022-12-20T01:52:51.596Z,1.38
2022-12-20T01:55:19.772Z,1.80
2022-12-20T01:57:58.248Z,2.03
2022-12-20T02:00:25.234Z,1.52
2022-12-20T02:02:52.055Z,1.80
2022-12-20T02:05:23.555Z,1.63
2022-12-20T02:07:54.174Z,1.73
2022-12-20T02:10:24.890Z,1.73
2022-12-20T02:13:05.239Z,2.78
2022-12-20T02:15:56.145Z,1.52
2022-12-20T02:18:28.252Z,1.38
2022-12-20T02:21:19.446Z,1.48
2022-12-20T02:24:14.006Z,1.38
2022-12-20T02:27:00.730Z,1.70
2022-12-20T02:29:43.338Z,1.80
2022-12-20T02:32:40.588Z,1.50
2022-12-20T02:35:09.570Z,1.75
2022-12-20T02:37:36.390Z,1.98
2022-12-20T02:40:05.189Z,2.00
2022-12-20T02:42:33.315Z,2.45
2022-12-20T02:45:26.004Z,2.05
2022-12-20T02:48:19.782Z,1.90
2022-12-20T02:50:51.381Z,1.90
2022-12-20T02:53:20.182Z,1.88
2022-12-20T02:55:58.991Z,1.80
2022-12-20T02:58:44.770Z,2.10
2022-12-20T03:01:20.415Z,1.73
2022-12-20T03:03:47.783Z,1.85
2022-12-20T03:06:14.603Z,2.08
2022-12-20T03:08:41.306Z,1.98
2022-12-20T03:11:08.331Z,2.30
2022-12-20T03:13:35.005Z,2.33
2022-12-20T03:18:33.644Z,1.98
2022-12-20T03:21:00.414Z,2.05
2022-12-20T03:23:27.188Z,1.90
2022-12-20T03:25:54.282Z,1.90
2022-12-20T03:28:31.301Z,1.90
2022-12-20T03:30:58.275Z,1.52
2022-12-20T03:33:25.421Z,1.90
2022-12-20T03:35:52.178Z,1.92
2022-12-20T03:38:19.184Z,2.20
2022-12-20T03:40:45.936Z,2.28
2022-12-20T03:43:16.746Z,2.57
2022-12-20T03:45:43.435Z,2.92
2022-12-20T03:48:10.179Z,2.03
2022-12-20T03:50:37.144Z,1.83
2022-12-20T03:53:04.197Z,1.95
2022-12-20T03:55:33.153Z,2.08
2022-12-20T03:58:00.419Z,2.20
2022-12-20T04:00:31.602Z,1.88
2022-12-20T04:03:17.130Z,2.13
2022-12-20T04:05:44.364Z,2.10
2022-12-20T04:08:12.671Z,2.08
2022-12-20T04:11:00.243Z,1.98
2022-12-20T04:13:32.323Z,2.10
2022-12-20T04:16:00.867Z,1.90
2022-12-20T04:18:30.870Z,1.92
2022-12-20T04:21:00.610Z,2.00
2022-12-20T04:23:29.409Z,2.30
2022-12-20T04:25:56.043Z,2.13
2022-12-20T04:28:22.817Z,2.05
2022-12-20T04:30:50.999Z,2.22
2022-12-20T04:33:24.125Z,2.20
2022-12-20T04:35:51.908Z,2.30
2022-12-20T04:38:23.592Z,2.28
2022-12-20T04:40:53.118Z,2.33
2022-12-20T04:43:21.222Z,1.98
2022-12-20T04:45:49.853Z,2.28
2022-12-20T04:48:54.728Z,2.00
2022-12-20T04:51:03.552Z,2.17
2022-12-20T04:53:49.902Z,2.30
2022-12-20T04:56:34.750Z,2.70
2022-12-20T04:59:08.555Z,2.40
2022-12-20T05:01:36.090Z,2.50
2022-12-20T05:04:03.304Z,2.42
2022-12-20T05:06:33.932Z,2.58
2022-12-20T05:09:01.014Z,2.67
2022-12-20T05:11:27.937Z,2.65
2022-12-20T05:13:54.732Z,2.67
2022-12-20T05:16:21.862Z,2.55
2022-12-20T05:18:49.746Z,2.65
2022-12-20T05:21:36.096Z,2.72
2022-12-20T05:24:23.533Z,2.90
2022-12-20T05:26:59.681Z,3.03
2022-12-20T05:29:26.789Z,2.72
2022-12-20T05:31:54.899Z,4.03
2022-12-20T05:34:22.050Z,6.82
2022-12-20T05:36:52.762Z,5.83
2022-12-20T05:39:21.183Z,4.28
2022-12-20T05:41:50.213Z,4.78
2022-12-20T05:44:18.224Z,3.83
2022-12-20T05:46:48.523Z,3.40
2022-12-20T05:49:21.020Z,2.67
2022-12-20T05:51:48.628Z,2.85
2022-12-20T05:54:22.904Z,2.72
2022-12-20T05:57:04.888Z,2.50
2022-12-20T05:59:37.761Z,2.75
2022-12-20T06:02:07.381Z,2.65
2022-12-20T06:04:35.402Z,2.80
2022-12-20T06:07:08.386Z,2.67
2022-12-20T06:09:35.737Z,2.72
2022-12-20T06:12:07.268Z,2.42
2022-12-20T06:14:34.624Z,2.70
2022-12-20T06:17:02.246Z,2.63
2022-12-20T06:19:30.354Z,3.75
2022-12-20T06:21:58.285Z,2.50
2022-12-20T06:24:47.687Z,2.80
2022-12-20T06:27:15.610Z,2.88
2022-12-20T06:29:49.310Z,3.20
2022-12-20T06:32:16.462Z,2.60
2022-12-20T06:34:43.504Z,2.70
2022-12-20T06:37:11.397Z,2.58
2022-12-20T06:39:38.116Z,2.75
2022-12-20T06:42:07.675Z,2.42
2022-12-20T06:44:35.666Z,2.80
2022-12-20T06:47:02.878Z,2.72
2022-12-20T06:49:30.355Z,2.75
2022-12-20T06:51:57.855Z,2.75
2022-12-20T06:54:43.270Z,2.55
2022-12-20T06:57:10.038Z,2.13
2022-12-20T06:59:37.924Z,2.50
2022-12-20T07:02:05.500Z,2.88
2022-12-20T07:04:34.149Z,2.15
2022-12-20T07:07:00.891Z,2.50
2022-12-20T07:09:27.528Z,2.40
2022-12-20T07:11:54.252Z,2.30
2022-12-20T07:14:20.966Z,2.38
2022-12-20T07:16:47.727Z,2.47
2022-12-20T07:19:15.568Z,2.83
2022-12-20T07:21:43.259Z,2.30
2022-12-20T07:24:10.688Z,2.30
2022-12-20T07:26:37.378Z,2.25
2022-12-20T07:29:05.028Z,2.63
2022-12-20T07:31:31.924Z,2.15
2022-12-20T07:33:59.434Z,2.20
2022-12-20T07:36:26.161Z,1.95
2022-12-20T07:38:52.787Z,2.67
2022-12-20T07:41:19.461Z,2.30
2022-12-20T07:43:46.330Z,2.00
2022-12-20T07:46:14.977Z,2.38
2022-12-20T07:48:41.926Z,2.35
2022-12-20T07:51:18.916Z,2.00
2022-12-20T07:53:50.151Z,2.30
2022-12-20T07:56:20.886Z,2.30
2022-12-20T07:58:50.600Z,2.45
2022-12-20T08:01:17.708Z,2.05
2022-12-20T08:03:49.718Z,2.40
2022-12-20T08:06:17.606Z,2.05
2022-12-20T08:08:49.238Z,2.17
2022-12-20T08:13:46.532Z,2.08
2022-12-20T08:16:14.289Z,2.20
2022-12-20T08:18:41.009Z,2.10
2022-12-20T08:21:08.432Z,2.13
2022-12-20T08:23:35.101Z,2.35
2022-12-20T08:26:02.419Z,2.30
2022-12-20T08:28:29.169Z,1.90
2022-12-20T08:31:03.211Z,2.28
2022-12-20T08:33:30.568Z,2.10
2022-12-20T08:35:59.245Z,2.10
2022-12-20T08:38:27.740Z,2.90
2022-12-20T08:40:54.594Z,2.97
2022-12-20T08:43:21.550Z,2.72
2022-12-20T08:45:55.357Z,3.00
2022-12-20T08:48:22.960Z,2.97
2022-12-20T08:50:57.494Z,2.45
2022-12-20T08:53:24.966Z,4.72
2022-12-20T08:55:51.756Z,4.65
2022-12-20T08:58:18.935Z,4.53
2022-12-20T09:00:46.746Z,4.25
2022-12-20T09:03:16.812Z,7.32
2022-12-20T09:05:45.588Z,5.88
2022-12-20T09:08:12.387Z,4.63
2022-12-20T09:10:39.153Z,3.13
2022-12-20T09:13:05.843Z,3.05
2022-12-20T09:15:34.888Z,3.20
2022-12-20T09:18:02.079Z,4.28
2022-12-20T09:20:29.177Z,3.53
2022-12-20T09:22:56.172Z,3.97
2022-12-20T09:25:23.009Z,3.38
2022-12-20T09:27:50.033Z,2.25
2022-12-20T09:30:17.026Z,2.78
2022-12-20T09:32:43.961Z,2.33
2022-12-20T09:35:10.660Z,1.63
2022-12-20T09:37:37.359Z,1.75
2022-12-20T09:40:04.591Z,1.95
2022-12-20T09:42:31.712Z,1.42
2022-12-20T09:45:09.566Z,1.55
2022-12-20T09:47:37.510Z,1.92
2022-12-20T09:50:06.172Z,1.50
2022-12-20T09:53:11.117Z,1.50
2022-12-20T09:55:46.872Z,1.90
2022-12-20T09:58:30.837Z,1.50
2022-12-20T10:00:58.436Z,1.90
2022-12-20T10:03:33.365Z,1.73
2022-12-20T10:06:26.069Z,1.48
2022-12-20T10:09:09.873Z,1.58
2022-12-20T10:11:54.762Z,1.80
2022-12-20T10:14:30.602Z,1.60
2022-12-20T10:17:10.552Z,1.50
2022-12-20T10:20:19.024Z,1.38
2022-12-20T10:23:08.849Z,1.23
2022-12-20T10:25:35.866Z,1.50
2022-12-20T10:28:10.243Z,1.60
2022-12-20T10:30:37.247Z,1.20
2022-12-20T10:33:04.091Z,1.33
2022-12-20T10:35:40.397Z,1.50
2022-12-20T10:38:12.803Z,1.77
2022-12-20T10:41:19.484Z,1.60
2022-12-20T10:43:48.624Z,1.48
2022-12-20T10:46:22.428Z,2.00
2022-12-20T10:48:50.827Z,1.42
2022-12-20T10:51:22.567Z,1.73
2022-12-20T10:56:31.479Z,1.75
2022-12-20T10:59:21.264Z,1.60
2022-12-20T11:01:49.713Z,1.60
2022-12-20T11:04:35.384Z,1.70
2022-12-20T11:07:21.409Z,1.60
2022-12-20T11:10:04.590Z,1.67
2022-12-20T11:12:31.893Z,1.60
2022-12-20T11:15:20.822Z,1.70
2022-12-20T11:18:55.422Z,1.90
2022-12-20T11:21:45.079Z,1.85
2022-12-20T11:24:23.908Z,2.40
2022-12-20T11:26:56.759Z,1.98
2022-12-20T11:29:41.621Z,1.70
2022-12-20T11:32:48.418Z,1.63
2022-12-20T11:35:21.148Z,1.88
2022-12-20T11:37:53.933Z,2.10
2022-12-20T11:40:32.406Z,1.77
2022-12-20T11:43:54.161Z,2.03
2022-12-20T11:46:43.100Z,2.05
2022-12-20T11:49:18.602Z,2.45
2022-12-20T11:51:58.633Z,2.00
2022-12-20T11:54:35.637Z,1.90
2022-12-20T11:57:26.402Z,1.83
2022-12-20T12:00:02.655Z,2.08
2022-12-20T12:02:59.082Z,1.50
2022-12-20T12:05:51.001Z,2.03
2022-12-20T12:08:28.147Z,1.80
2022-12-20T12:11:00.212Z,2.08
2022-12-20T12:13:29.301Z,1.70
2022-12-20T12:16:10.098Z,2.13
2022-12-20T12:18:39.398Z,2.30
2022-12-20T12:21:10.126Z,2.20
2022-12-20T12:24:05.791Z,1.90
2022-12-20T12:26:34.723Z,1.73
2022-12-20T12:29:10.342Z,2.13
2022-12-20T12:31:56.108Z,2.38
2022-12-20T12:34:22.871Z,2.13
2022-12-20T12:37:16.628Z,2.00
2022-12-20T12:39:50.520Z,2.50
2022-12-20T12:42:33.967Z,2.55
2022-12-20T12:45:05.298Z,3.20
2022-12-20T12:47:34.922Z,3.17
2022-12-20T12:50:03.988Z,3.30
2022-12-20T12:52:49.536Z,3.00
2022-12-20T12:55:37.959Z,2.50
2022-12-20T12:58:15.260Z,2.88
2022-12-20T13:01:05.335Z,2.72
2022-12-20T13:04:06.111Z,2.72
2022-12-20T13:06:36.247Z,3.03
2022-12-20T13:09:03.223Z,2.50
2022-12-20T13:11:32.866Z,3.08
2022-12-20T13:14:25.549Z,4.72
2022-12-20T13:17:12.787Z,3.03
2022-12-20T13:19:51.146Z,2.92
2022-12-20T13:22:17.848Z,3.00
2022-12-20T13:24:57.531Z,3.13
2022-12-20T13:27:27.916Z,2.50
2022-12-20T13:30:02.657Z,3.00
2022-12-20T13:32:47.647Z,2.72
2022-12-20T13:35:27.727Z,3.15
2022-12-20T13:37:55.081Z,3.00
2022-12-20T13:40:40.918Z,3.53
2022-12-20T13:43:25.180Z,2.83
2022-12-20T13:45:57.038Z,3.45
2022-12-20T13:48:31.478Z,3.20
2022-12-20T13:50:58.420Z,3.25
2022-12-20T13:53:27.766Z,3.00
2022-12-20T13:55:55.149Z,2.67
2022-12-20T13:58:25.932Z,2.85
2022-12-20T14:00:54.087Z,3.08
2022-12-20T14:03:27.217Z,3.28
2022-12-20T14:06:01.082Z,3.55
2022-12-20T14:08:33.773Z,3.35
2022-12-20T14:11:27.721Z,2.50
2022-12-20T14:14:00.066Z,3.33
2022-12-20T14:16:29.530Z,3.10
2022-12-20T14:19:02.974Z,3.60
2022-12-20T14:21:30.144Z,2.90
2022-12-20T14:23:59.467Z,3.65
2022-12-20T14:26:30.068Z,3.88
2022-12-20T14:28:58.866Z,3.58
2022-12-20T14:31:39.348Z,4.03
2022-12-20T14:34:12.048Z,2.70
2022-12-20T14:36:41.471Z,3.75
2022-12-20T14:39:32.303Z,3.70
2022-12-20T14:42:02.775Z,2.92
2022-12-20T14:44:31.382Z,2.92
2022-12-20T14:47:01.869Z,3.00
2022-12-20T14:49:37.223Z,3.08
2022-12-20T14:52:17.924Z,3.58
2022-12-20T14:55:14.354Z,2.47
2022-12-20T14:57:55.545Z,2.58
2022-12-20T15:00:27.517Z,3.05
2022-12-20T15:02:59.811Z,2.95
2022-12-20T15:05:36.340Z,2.60
2022-12-20T15:08:18.497Z,2.42
2022-12-20T15:10:50.307Z,2.67
2022-12-20T15:13:19.046Z,2.63
2022-12-20T15:15:46.369Z,2.60
2022-12-20T15:18:15.245Z,2.88
2022-12-20T15:20:43.628Z,2.90
2022-12-20T15:23:16.523Z,2.97
2022-12-20T15:25:44.253Z,3.10
2022-12-20T15:28:21.226Z,3.00
2022-12-20T15:30:49.443Z,3.25
2022-12-20T15:33:26.275Z,3.60
2022-12-20T15:35:54.171Z,4.15
2022-12-20T15:38:47.471Z,4.07
2022-12-20T15:41:28.565Z,3.60
2022-12-20T15:46:24.023Z,3.17
2022-12-20T15:48:50.813Z,3.00
2022-12-20T15:51:30.134Z,2.95
2022-12-20T15:53:57.591Z,4.22
2022-12-20T15:56:25.575Z,3.10
2022-12-20T15:58:55.183Z,2.75
2022-12-20T16:01:27.166Z,2.90
2022-12-20T16:03:54.103Z,2.70
2022-12-20T16:06:20.841Z,3.15
2022-12-20T16:08:47.518Z,4.97
2022-12-20T16:11:23.681Z,3.00
2022-12-20T16:13:51.205Z,3.08
2022-12-20T16:16:19.606Z,3.22
2022-12-20T16:18:46.482Z,6.93
2022-12-20T16:21:18.830Z,4.60
2022-12-20T16:23:47.052Z,3.67
2022-12-20T16:26:15.994Z,2.90
2022-12-20T16:28:43.073Z,3.17
2022-12-20T16:31:21.503Z,30.08
2022-12-20T16:33:48.466Z,9.82
2022-12-20T16:36:15.423Z,7.22
2022-12-20T16:38:42.073Z,3.15
2022-12-20T16:41:19.916Z,2.83
2022-12-20T16:43:47.835Z,3.13
2022-12-20T16:46:19.275Z,3.97
2022-12-20T16:48:46.643Z,3.58
2022-12-20T16:51:25.364Z,3.08
2022-12-20T16:54:21.045Z,3.38
2022-12-20T16:56:54.944Z,3.90
2022-12-20T16:59:23.539Z,4.38
2022-12-20T17:01:53.334Z,3.97
2022-12-20T17:04:21.219Z,3.95
2022-12-20T17:06:48.067Z,3.83
2022-12-20T17:09:18.397Z,3.60
2022-12-20T17:11:45.495Z,3.15
2022-12-20T17:14:13.448Z,3.55
2022-12-20T17:16:41.110Z,3.45
2022-12-20T17:19:09.135Z,3.50
2022-12-20T17:24:24.707Z,3.42
2022-12-20T17:26:55.368Z,4.60
2022-12-20T17:29:22.119Z,4.03
2022-12-20T17:31:48.989Z,3.40
2022-12-20T17:34:21.549Z,3.17
2022-12-20T17:36:49.915Z,4.32
2022-12-20T17:39:17.048Z,4.82
2022-12-20T17:41:44.927Z,3.60
2022-12-20T17:44:23.427Z,3.50
2022-12-20T17:46:50.387Z,3.72
2022-12-20T17:49:17.861Z,3.60
2022-12-20T17:51:45.173Z,3.25
2022-12-20T17:54:22.001Z,3.20
2022-12-20T17:56:49.794Z,3.30
2022-12-20T17:59:17.183Z,3.40
2022-12-20T18:01:45.509Z,3.75
2022-12-20T18:04:14.708Z,3.95
2022-12-20T18:06:43.630Z,3.90
2022-12-20T18:09:18.380Z,3.55
2022-12-20T18:11:45.778Z,4.70
2022-12-20T18:14:13.100Z,4.07
2022-12-20T18:16:40.340Z,3.90
2022-12-20T18:19:14.235Z,4.70
2022-12-20T18:21:41.623Z,4.28
2022-12-20T18:24:11.842Z,4.55
2022-12-20T18:26:38.665Z,4.85
2022-12-20T18:29:05.375Z,4.03
2022-12-20T18:31:34.578Z,4.13
2022-12-20T18:34:02.494Z,6.35
2022-12-20T18:36:32.068Z,7.38
2022-12-20T18:39:00.016Z,4.60
2022-12-20T18:41:29.054Z,4.32
2022-12-20T18:44:01.618Z,4.25
2022-12-20T18:46:28.915Z,4.60
2022-12-20T18:48:58.664Z,4.80
2022-12-20T18:51:27.777Z,4.10
2022-12-20T18:53:56.530Z,4.82
2022-12-20T18:56:30.846Z,4.50
2022-12-20T18:59:02.973Z,4.70
2022-12-20T19:01:35.645Z,4.50
2022-12-20T19:04:04.657Z,4.55
2022-12-20T19:06:32.045Z,4.60
2022-12-20T19:09:04.160Z,4.68
2022-12-20T19:11:30.957Z,4.47
2022-12-20T19:13:57.602Z,4.78
2022-12-20T19:16:28.056Z,5.35
2022-12-20T19:18:55.200Z,5.72
2022-12-20T19:21:24.368Z,5.88
2022-12-20T19:23:53.804Z,6.63
2022-12-20T19:26:22.317Z,7.10
2022-12-20T19:28:49.125Z,7.93
2022-12-20T19:31:23.661Z,8.10
2022-12-20T19:33:53.033Z,9.88
2022-12-20T19:36:21.441Z,10.57
2022-12-20T19:38:51.564Z,10.88
2022-12-20T19:41:18.873Z,11.02
2022-12-20T19:43:47.784Z,12.05
2022-12-20T19:46:15.033Z,12.57
2022-12-20T19:48:41.997Z,12.43
2022-12-20T19:51:11.613Z,13.13
2022-12-20T19:53:39.761Z,12.13
2022-12-20T19:56:09.951Z,11.38
2022-12-20T19:58:37.688Z,10.75
2022-12-20T20:01:07.030Z,10.68
2022-12-20T20:03:35.140Z,9.70
2022-12-20T20:06:03.488Z,9.68
2022-12-20T20:08:30.959Z,10.18
2022-12-20T20:11:03.846Z,10.85
2022-12-20T20:13:34.298Z,8.82
2022-12-20T20:16:03.136Z,8.63
2022-12-20T20:18:33.151Z,8.32
2022-12-20T20:20:59.864Z,8.43
2022-12-20T20:23:27.080Z,8.82
2022-12-20T20:25:59.995Z,9.23
2022-12-20T20:28:32.300Z,8.93
2022-12-20T20:31:01.849Z,9.82
2022-12-20T20:33:30.183Z,10.20
2022-12-20T20:35:59.109Z,10.18
2022-12-20T20:38:26.892Z,10.77
2022-12-20T20:40:53.894Z,11.07
2022-12-20T20:43:21.471Z,12.32
2022-12-20T20:45:48.889Z,13.50
2022-12-20T20:48:16.299Z,15.93
2022-12-20T20:50:44.623Z,15.75
2022-12-20T20:53:12.537Z,16.73
2022-12-20T20:55:39.230Z,17.10
2022-12-20T20:58:05.920Z,17.48
2022-12-20T21:00:32.817Z,19.02
2022-12-20T21:02:59.826Z,23.10
2022-12-20T21:08:15.466Z,25.05
2022-12-20T21:10:42.993Z,26.48
2022-12-20T21:13:09.872Z,26.88
2022-12-20T21:15:36.963Z,27.25
2022-12-20T21:18:03.723Z,26.20
2022-12-20T21:20:30.609Z,26.63
2022-12-20T21:22:58.205Z,25.45
2022-12-20T21:25:24.876Z,24.38
2022-12-20T21:27:51.556Z,23.13
2022-12-20T21:30:18.301Z,21.35
2022-12-20T21:32:45.598Z,21.60
2022-12-20T21:35:12.261Z,19.33
2022-12-20T21:37:38.901Z,17.80
2022-12-20T21:40:07.518Z,15.52
2022-12-20T21:42:34.397Z,15.73
2022-12-20T21:45:01.428Z,14.15
2022-12-20T21:47:28.147Z,14.15
2022-12-20T21:49:54.774Z,11.82
2022-12-20T21:52:21.513Z,12.07
2022-12-20T21:54:48.143Z,11.98
2022-12-20T21:57:14.787Z,11.63
2022-12-20T21:59:41.386Z,11.55
2022-12-20T22:02:11.415Z,11.18
2022-12-20T22:04:39.151Z,11.00
2022-12-20T22:07:06.149Z,10.50
2022-12-20T22:09:33.895Z,10.60
2022-12-20T22:12:00.639Z,9.45
2022-12-20T22:14:27.252Z,9.32
2022-12-20T22:16:55.192Z,10.25
2022-12-20T22:19:21.951Z,10.57
2022-12-20T22:21:53.702Z,9.82
2022-12-20T22:24:24.233Z,9.85
2022-12-20T22:26:50.977Z,9.50
2022-12-20T22:29:17.651Z,9.00
2022-12-20T22:31:44.512Z,9.45
2022-12-20T22:34:11.526Z,9.83
2022-12-20T22:36:38.185Z,9.95
2022-12-20T22:39:04.922Z,9.70
2022-12-20T22:41:34.532Z,9.93
2022-12-20T22:44:01.661Z,10.10
2022-12-20T22:46:31.372Z,9.27
2022-12-20T22:48:59.218Z,9.55
2022-12-20T22:51:27.378Z,9.63
2022-12-20T22:53:57.605Z,9.60
2022-12-20T22:56:24.323Z,9.80
2022-12-20T22:58:51.242Z,9.85
2022-12-20T23:01:19.835Z,9.48
2022-12-20T23:03:47.384Z,10.30
2022-12-20T23:06:17.693Z,9.32
2022-12-20T23:08:44.507Z,9.77
2022-12-20T23:11:43.104Z,10.68
2022-12-20T23:14:37.692Z,10.05
2022-12-20T23:17:06.442Z,10.07
2022-12-20T23:19:51.997Z,9.93
2022-12-20T23:22:38.510Z,9.70
2022-12-20T23:25:11.651Z,10.02
2022-12-20T23:27:39.642Z,11.75
2022-12-20T23:30:08.447Z,10.55
2022-12-20T23:32:35.625Z,10.63
2022-12-20T23:35:08.348Z,11.07
2022-12-20T23:37:38.865Z,10.93
2022-12-20T23:40:06.761Z,10.48
2022-12-20T23:42:33.408Z,10.68
2022-12-20T23:45:00.146Z,12.30
2022-12-20T23:47:26.763Z,11.02
2022-12-20T23:49:53.455Z,11.88
2022-12-20T23:52:20.095Z,11.80
2022-12-20T23:54:46.759Z,11.98
2022-12-20T23:57:13.934Z,12.60
2022-12-20T23:59:40.706Z,11.75
